sensor_id;sensor_type;location;lat;lon;timestamp;temperature;humidity
42833;DHT22;64089;51.478;5.692;2023-07-29T00:01:20;19.00;99.90
42833;DHT22;64089;51.478;5.692;2023-07-29T00:03:46;19.00;99.90
42833;DHT22;64089;51.478;5.692;2023-07-29T00:06:12;19.00;99.90
42833;DHT22;64089;51.478;5.692;2023-07-29T00:08:37;19.10;99.90
42833;DHT22;64089;51.478;5.692;2023-07-29T00:11:03;19.10;99.90
42833;DHT22;64089;51.478;5.692;2023-07-29T00:13:28;19.10;99.90
42833;DHT22;64089;51.478;5.692;2023-07-29T00:15:54;19.10;99.90
42833;DHT22;64089;51.478;5.692;2023-07-29T00:18:21;19.10;99.90
42833;DHT22;64089;51.478;5.692;2023-07-29T00:20:48;19.10;99.90
42833;DHT22;64089;51.478;5.692;2023-07-29T00:23:13;19.10;99.90
42833;DHT22;64089;51.478;5.692;2023-07-29T00:25:39;19.10;99.90
42833;DHT22;64089;51.478;5.692;2023-07-29T00:28:05;19.20;99.90
42833;DHT22;64089;51.478;5.692;2023-07-29T00:30:30;19.20;99.90
42833;DHT22;64089;51.478;5.692;2023-07-29T00:32:56;19.20;99.90
42833;DHT22;64089;51.478;5.692;2023-07-29T00:35:21;19.20;99.90
42833;DHT22;64089;51.478;5.692;2023-07-29T00:37:47;19.20;99.90
42833;DHT22;64089;51.478;5.692;2023-07-29T00:40:16;19.20;99.90
42833;DHT22;64089;51.478;5.692;2023-07-29T00:42:44;19.20;99.90
42833;DHT22;64089;51.478;5.692;2023-07-29T00:45:10;19.20;99.90
42833;DHT22;64089;51.478;5.692;2023-07-29T00:47:37;19.20;99.90
42833;DHT22;64089;51.478;5.692;2023-07-29T00:50:03;19.20;99.90
42833;DHT22;64089;51.478;5.692;2023-07-29T00:52:29;19.20;99.90
42833;DHT22;64089;51.478;5.692;2023-07-29T00:54:55;19.10;99.90
42833;DHT22;64089;51.478;5.692;2023-07-29T00:57:20;19.10;99.90
42833;DHT22;64089;51.478;5.692;2023-07-29T00:59:47;19.00;99.90
42833;DHT22;64089;51.478;5.692;2023-07-29T01:02:12;19.00;99.90
42833;DHT22;64089;51.478;5.692;2023-07-29T01:04:38;19.00;99.90
42833;DHT22;64089;51.478;5.692;2023-07-29T01:10:04;18.90;99.90
42833;DHT22;64089;51.478;5.692;2023-07-29T01:17:55;18.90;99.90
42833;DHT22;64089;51.478;5.692;2023-07-29T01:20:25;18.90;99.90
42833;DHT22;64089;51.478;5.692;2023-07-29T01:22:51;18.90;99.90
42833;DHT22;64089;51.478;5.692;2023-07-29T01:25:17;18.90;99.90
42833;DHT22;64089;51.478;5.692;2023-07-29T01:27:44;18.90;99.90
42833;DHT22;64089;51.478;5.692;2023-07-29T01:30:10;18.90;99.90
42833;DHT22;64089;51.478;5.692;2023-07-29T01:32:41;18.80;99.90
42833;DHT22;64089;51.478;5.692;2023-07-29T01:35:24;18.80;99.90
42833;DHT22;64089;51.478;5.692;2023-07-29T01:37:55;18.80;99.90
42833;DHT22;64089;51.478;5.692;2023-07-29T01:40:25;18.80;99.90
42833;DHT22;64089;51.478;5.692;2023-07-29T01:42:52;18.90;99.90
42833;DHT22;64089;51.478;5.692;2023-07-29T01:45:18;18.90;99.90
42833;DHT22;64089;51.478;5.692;2023-07-29T01:47:43;19.00;99.90
42833;DHT22;64089;51.478;5.692;2023-07-29T01:50:09;19.00;99.90
42833;DHT22;64089;51.478;5.692;2023-07-29T01:52:35;19.00;99.90
42833;DHT22;64089;51.478;5.692;2023-07-29T01:55:01;19.00;99.90
42833;DHT22;64089;51.478;5.692;2023-07-29T01:57:27;19.00;99.90
42833;DHT22;64089;51.478;5.692;2023-07-29T01:59:53;18.90;99.90
42833;DHT22;64089;51.478;5.692;2023-07-29T02:02:18;18.90;99.90
42833;DHT22;64089;51.478;5.692;2023-07-29T02:04:44;18.80;99.90
42833;DHT22;64089;51.478;5.692;2023-07-29T02:07:10;18.80;99.90
42833;DHT22;64089;51.478;5.692;2023-07-29T02:09:36;18.70;99.90
42833;DHT22;64089;51.478;5.692;2023-07-29T02:12:02;18.70;99.90
42833;DHT22;64089;51.478;5.692;2023-07-29T02:14:28;18.70;99.90
42833;DHT22;64089;51.478;5.692;2023-07-29T02:16:54;18.60;99.90
42833;DHT22;64089;51.478;5.692;2023-07-29T02:19:19;18.50;99.90
42833;DHT22;64089;51.478;5.692;2023-07-29T02:21:45;18.50;99.90
42833;DHT22;64089;51.478;5.692;2023-07-29T02:24:10;18.50;99.90
42833;DHT22;64089;51.478;5.692;2023-07-29T02:26:36;18.40;99.90
42833;DHT22;64089;51.478;5.692;2023-07-29T02:29:02;18.30;99.90
42833;DHT22;64089;51.478;5.692;2023-07-29T02:31:27;18.30;99.90
42833;DHT22;64089;51.478;5.692;2023-07-29T02:33:53;18.30;99.90
42833;DHT22;64089;51.478;5.692;2023-07-29T02:36:19;18.30;99.90
42833;DHT22;64089;51.478;5.692;2023-07-29T02:38:45;18.20;99.90
42833;DHT22;64089;51.478;5.692;2023-07-29T02:41:11;18.20;99.90
42833;DHT22;64089;51.478;5.692;2023-07-29T02:43:42;18.20;99.90
42833;DHT22;64089;51.478;5.692;2023-07-29T02:46:08;18.20;99.90
42833;DHT22;64089;51.478;5.692;2023-07-29T02:48:34;18.20;99.90
42833;DHT22;64089;51.478;5.692;2023-07-29T02:51:00;18.10;99.90
42833;DHT22;64089;51.478;5.692;2023-07-29T02:53:25;18.10;99.90
42833;DHT22;64089;51.478;5.692;2023-07-29T02:55:51;18.10;99.90
42833;DHT22;64089;51.478;5.692;2023-07-29T02:58:16;18.10;99.90
42833;DHT22;64089;51.478;5.692;2023-07-29T03:00:42;18.10;99.90
42833;DHT22;64089;51.478;5.692;2023-07-29T03:03:09;18.10;99.90
42833;DHT22;64089;51.478;5.692;2023-07-29T03:05:35;18.00;99.90
42833;DHT22;64089;51.478;5.692;2023-07-29T03:08:00;18.00;99.90
42833;DHT22;64089;51.478;5.692;2023-07-29T03:10:26;18.00;99.90
42833;DHT22;64089;51.478;5.692;2023-07-29T03:12:54;18.00;99.90
42833;DHT22;64089;51.478;5.692;2023-07-29T03:15:23;18.00;99.90
42833;DHT22;64089;51.478;5.692;2023-07-29T03:17:50;17.90;99.90
42833;DHT22;64089;51.478;5.692;2023-07-29T03:20:16;17.90;99.90
42833;DHT22;64089;51.478;5.692;2023-07-29T03:22:46;17.90;99.90
42833;DHT22;64089;51.478;5.692;2023-07-29T03:25:12;17.90;99.90
42833;DHT22;64089;51.478;5.692;2023-07-29T03:27:38;17.90;99.90
42833;DHT22;64089;51.478;5.692;2023-07-29T03:30:05;17.90;99.90
42833;DHT22;64089;51.478;5.692;2023-07-29T03:32:31;17.80;99.90
42833;DHT22;64089;51.478;5.692;2023-07-29T03:34:57;17.90;99.90
42833;DHT22;64089;51.478;5.692;2023-07-29T03:37:24;17.90;99.90
42833;DHT22;64089;51.478;5.692;2023-07-29T03:39:49;17.80;99.90
42833;DHT22;64089;51.478;5.692;2023-07-29T03:42:17;17.80;99.90
42833;DHT22;64089;51.478;5.692;2023-07-29T03:44:43;17.80;99.90
42833;DHT22;64089;51.478;5.692;2023-07-29T03:47:08;17.80;99.90
42833;DHT22;64089;51.478;5.692;2023-07-29T03:49:34;17.80;99.90
42833;DHT22;64089;51.478;5.692;2023-07-29T03:51:59;17.80;99.90
42833;DHT22;64089;51.478;5.692;2023-07-29T03:54:25;17.70;99.90
42833;DHT22;64089;51.478;5.692;2023-07-29T03:56:51;17.70;99.90
42833;DHT22;64089;51.478;5.692;2023-07-29T03:59:17;17.70;99.90
42833;DHT22;64089;51.478;5.692;2023-07-29T04:01:42;17.70;99.90
42833;DHT22;64089;51.478;5.692;2023-07-29T04:04:08;17.70;99.90
42833;DHT22;64089;51.478;5.692;2023-07-29T04:06:34;17.70;99.90
42833;DHT22;64089;51.478;5.692;2023-07-29T04:08:59;17.60;99.90
42833;DHT22;64089;51.478;5.692;2023-07-29T04:11:25;17.60;99.90
42833;DHT22;64089;51.478;5.692;2023-07-29T04:13:51;17.60;99.90
42833;DHT22;64089;51.478;5.692;2023-07-29T04:16:17;17.50;99.90
42833;DHT22;64089;51.478;5.692;2023-07-29T04:18:42;17.50;99.90
42833;DHT22;64089;51.478;5.692;2023-07-29T04:21:08;17.50;99.90
42833;DHT22;64089;51.478;5.692;2023-07-29T04:23:34;17.50;99.90
42833;DHT22;64089;51.478;5.692;2023-07-29T04:26:00;17.50;99.90
42833;DHT22;64089;51.478;5.692;2023-07-29T04:28:26;17.40;99.90
42833;DHT22;64089;51.478;5.692;2023-07-29T04:30:51;17.40;99.90
42833;DHT22;64089;51.478;5.692;2023-07-29T04:33:17;17.40;99.90
42833;DHT22;64089;51.478;5.692;2023-07-29T04:35:43;17.40;99.90
42833;DHT22;64089;51.478;5.692;2023-07-29T04:38:08;17.40;99.90
42833;DHT22;64089;51.478;5.692;2023-07-29T04:40:34;17.40;99.90
42833;DHT22;64089;51.478;5.692;2023-07-29T04:43:02;17.40;99.90
42833;DHT22;64089;51.478;5.692;2023-07-29T04:45:29;17.30;99.90
42833;DHT22;64089;51.478;5.692;2023-07-29T04:47:55;17.40;99.90
42833;DHT22;64089;51.478;5.692;2023-07-29T04:50:21;17.30;99.90
42833;DHT22;64089;51.478;5.692;2023-07-29T04:52:46;17.40;99.90
42833;DHT22;64089;51.478;5.692;2023-07-29T04:55:12;17.50;99.90
42833;DHT22;64089;51.478;5.692;2023-07-29T04:57:37;17.50;99.90
42833;DHT22;64089;51.478;5.692;2023-07-29T05:00:03;17.50;99.90
42833;DHT22;64089;51.478;5.692;2023-07-29T05:02:29;17.60;99.90
42833;DHT22;64089;51.478;5.692;2023-07-29T05:04:55;17.60;99.90
42833;DHT22;64089;51.478;5.692;2023-07-29T05:07:20;17.60;99.90
42833;DHT22;64089;51.478;5.692;2023-07-29T05:09:47;17.70;99.90
42833;DHT22;64089;51.478;5.692;2023-07-29T05:12:13;17.70;99.90
42833;DHT22;64089;51.478;5.692;2023-07-29T05:14:38;17.70;99.90
42833;DHT22;64089;51.478;5.692;2023-07-29T05:17:04;17.80;99.90
42833;DHT22;64089;51.478;5.692;2023-07-29T05:19:30;17.70;99.90
42833;DHT22;64089;51.478;5.692;2023-07-29T05:21:56;17.70;99.90
42833;DHT22;64089;51.478;5.692;2023-07-29T05:24:22;17.80;99.90
42833;DHT22;64089;51.478;5.692;2023-07-29T05:26:48;17.80;99.90
42833;DHT22;64089;51.478;5.692;2023-07-29T05:29:14;17.90;99.90
42833;DHT22;64089;51.478;5.692;2023-07-29T05:31:40;17.90;99.90
42833;DHT22;64089;51.478;5.692;2023-07-29T05:34:06;17.80;99.90
42833;DHT22;64089;51.478;5.692;2023-07-29T05:36:31;17.80;99.90
42833;DHT22;64089;51.478;5.692;2023-07-29T05:38:57;17.80;99.90
42833;DHT22;64089;51.478;5.692;2023-07-29T05:41:23;17.80;99.90
42833;DHT22;64089;51.478;5.692;2023-07-29T05:43:48;17.80;99.90
42833;DHT22;64089;51.478;5.692;2023-07-29T05:46:14;17.80;99.90
42833;DHT22;64089;51.478;5.692;2023-07-29T05:48:39;17.80;99.90
42833;DHT22;64089;51.478;5.692;2023-07-29T05:51:05;17.70;99.90
42833;DHT22;64089;51.478;5.692;2023-07-29T05:53:31;17.70;99.90
42833;DHT22;64089;51.478;5.692;2023-07-29T05:55:56;17.70;99.90
42833;DHT22;64089;51.478;5.692;2023-07-29T05:58:22;17.80;99.90
42833;DHT22;64089;51.478;5.692;2023-07-29T06:00:49;17.80;99.90
42833;DHT22;64089;51.478;5.692;2023-07-29T06:03:15;17.90;99.90
42833;DHT22;64089;51.478;5.692;2023-07-29T06:05:41;18.00;99.90
42833;DHT22;64089;51.478;5.692;2023-07-29T06:08:06;17.90;99.90
42833;DHT22;64089;51.478;5.692;2023-07-29T06:10:34;18.00;99.90
42833;DHT22;64089;51.478;5.692;2023-07-29T06:12:59;18.20;99.90
42833;DHT22;64089;51.478;5.692;2023-07-29T06:15:25;18.40;99.90
42833;DHT22;64089;51.478;5.692;2023-07-29T06:17:50;18.40;99.90
42833;DHT22;64089;51.478;5.692;2023-07-29T06:20:16;18.30;99.90
42833;DHT22;64089;51.478;5.692;2023-07-29T06:22:42;18.30;99.90
42833;DHT22;64089;51.478;5.692;2023-07-29T06:25:08;18.30;99.90
42833;DHT22;64089;51.478;5.692;2023-07-29T06:27:34;18.30;99.90
42833;DHT22;64089;51.478;5.692;2023-07-29T06:29:59;18.40;99.90
42833;DHT22;64089;51.478;5.692;2023-07-29T06:32:26;18.30;99.90
42833;DHT22;64089;51.478;5.692;2023-07-29T06:34:51;18.30;99.90
42833;DHT22;64089;51.478;5.692;2023-07-29T06:37:19;18.40;99.90
42833;DHT22;64089;51.478;5.692;2023-07-29T06:39:45;18.50;99.90
42833;DHT22;64089;51.478;5.692;2023-07-29T06:42:10;18.60;99.90
42833;DHT22;64089;51.478;5.692;2023-07-29T06:44:36;18.60;99.90
42833;DHT22;64089;51.478;5.692;2023-07-29T06:47:01;18.70;99.90
42833;DHT22;64089;51.478;5.692;2023-07-29T06:49:27;18.70;99.90
42833;DHT22;64089;51.478;5.692;2023-07-29T06:51:53;18.80;99.90
42833;DHT22;64089;51.478;5.692;2023-07-29T06:54:18;18.70;99.90
42833;DHT22;64089;51.478;5.692;2023-07-29T06:56:44;18.70;99.90
42833;DHT22;64089;51.478;5.692;2023-07-29T06:59:09;18.60;99.90
42833;DHT22;64089;51.478;5.692;2023-07-29T07:01:35;18.70;99.90
42833;DHT22;64089;51.478;5.692;2023-07-29T07:04:00;18.90;99.90
42833;DHT22;64089;51.478;5.692;2023-07-29T07:06:26;19.00;99.90
42833;DHT22;64089;51.478;5.692;2023-07-29T07:08:52;19.10;99.90
42833;DHT22;64089;51.478;5.692;2023-07-29T07:11:18;19.30;99.90
42833;DHT22;64089;51.478;5.692;2023-07-29T07:13:44;19.60;99.90
42833;DHT22;64089;51.478;5.692;2023-07-29T07:16:10;19.80;99.90
42833;DHT22;64089;51.478;5.692;2023-07-29T07:18:35;19.90;99.90
42833;DHT22;64089;51.478;5.692;2023-07-29T07:21:01;19.90;99.90
42833;DHT22;64089;51.478;5.692;2023-07-29T07:23:26;19.90;99.90
42833;DHT22;64089;51.478;5.692;2023-07-29T07:25:52;19.90;99.90
42833;DHT22;64089;51.478;5.692;2023-07-29T07:28:17;20.10;99.90
42833;DHT22;64089;51.478;5.692;2023-07-29T07:30:43;20.10;99.90
42833;DHT22;64089;51.478;5.692;2023-07-29T07:33:09;20.20;99.90
42833;DHT22;64089;51.478;5.692;2023-07-29T07:35:35;20.30;99.90
42833;DHT22;64089;51.478;5.692;2023-07-29T07:38:01;20.10;99.90
42833;DHT22;64089;51.478;5.692;2023-07-29T07:40:30;20.00;99.90
42833;DHT22;64089;51.478;5.692;2023-07-29T07:42:56;20.00;99.90
42833;DHT22;64089;51.478;5.692;2023-07-29T07:45:21;19.90;99.90
42833;DHT22;64089;51.478;5.692;2023-07-29T07:47:47;19.90;99.90
42833;DHT22;64089;51.478;5.692;2023-07-29T07:50:13;20.10;99.90
42833;DHT22;64089;51.478;5.692;2023-07-29T07:52:39;20.20;99.90
42833;DHT22;64089;51.478;5.692;2023-07-29T07:55:05;20.20;99.90
42833;DHT22;64089;51.478;5.692;2023-07-29T07:57:31;20.30;99.90
42833;DHT22;64089;51.478;5.692;2023-07-29T07:59:56;20.40;99.90
42833;DHT22;64089;51.478;5.692;2023-07-29T08:02:22;20.40;99.90
42833;DHT22;64089;51.478;5.692;2023-07-29T08:04:48;20.60;99.90
42833;DHT22;64089;51.478;5.692;2023-07-29T08:07:14;20.80;99.90
42833;DHT22;64089;51.478;5.692;2023-07-29T08:09:39;20.50;99.90
42833;DHT22;64089;51.478;5.692;2023-07-29T08:12:05;20.50;99.90
42833;DHT22;64089;51.478;5.692;2023-07-29T08:14:31;20.50;99.90
42833;DHT22;64089;51.478;5.692;2023-07-29T08:16:57;20.60;99.90
42833;DHT22;64089;51.478;5.692;2023-07-29T08:19:23;20.70;99.90
42833;DHT22;64089;51.478;5.692;2023-07-29T08:21:48;20.90;99.90
42833;DHT22;64089;51.478;5.692;2023-07-29T08:24:14;20.70;99.90
42833;DHT22;64089;51.478;5.692;2023-07-29T08:26:40;20.80;99.90
42833;DHT22;64089;51.478;5.692;2023-07-29T08:29:05;20.70;99.90
42833;DHT22;64089;51.478;5.692;2023-07-29T08:31:31;20.70;99.90
42833;DHT22;64089;51.478;5.692;2023-07-29T08:33:59;21.10;99.90
42833;DHT22;64089;51.478;5.692;2023-07-29T08:36:25;21.20;99.90
42833;DHT22;64089;51.478;5.692;2023-07-29T08:38:50;21.20;99.90
42833;DHT22;64089;51.478;5.692;2023-07-29T08:41:24;21.00;99.90
42833;DHT22;64089;51.478;5.692;2023-07-29T08:46:25;21.10;99.90
42833;DHT22;64089;51.478;5.692;2023-07-29T08:48:51;20.90;99.90
42833;DHT22;64089;51.478;5.692;2023-07-29T08:51:17;20.90;99.90
42833;DHT22;64089;51.478;5.692;2023-07-29T08:53:43;21.00;99.90
42833;DHT22;64089;51.478;5.692;2023-07-29T08:56:09;21.20;99.90
42833;DHT22;64089;51.478;5.692;2023-07-29T08:58:35;21.00;99.90
42833;DHT22;64089;51.478;5.692;2023-07-29T09:01:01;21.10;99.90
42833;DHT22;64089;51.478;5.692;2023-07-29T09:03:27;21.50;99.90
42833;DHT22;64089;51.478;5.692;2023-07-29T09:05:53;21.70;99.90
42833;DHT22;64089;51.478;5.692;2023-07-29T09:08:20;21.70;99.90
42833;DHT22;64089;51.478;5.692;2023-07-29T09:10:46;21.60;99.90
42833;DHT22;64089;51.478;5.692;2023-07-29T09:13:12;21.70;99.90
42833;DHT22;64089;51.478;5.692;2023-07-29T09:15:38;21.90;99.90
42833;DHT22;64089;51.478;5.692;2023-07-29T09:18:30;22.00;99.90
42833;DHT22;64089;51.478;5.692;2023-07-29T09:20:59;21.80;99.90
42833;DHT22;64089;51.478;5.692;2023-07-29T09:23:26;22.00;99.90
42833;DHT22;64089;51.478;5.692;2023-07-29T09:26:00;22.00;99.90
42833;DHT22;64089;51.478;5.692;2023-07-29T09:28:26;21.90;99.90
42833;DHT22;64089;51.478;5.692;2023-07-29T09:30:53;21.60;99.90
42833;DHT22;64089;51.478;5.692;2023-07-29T09:33:18;21.20;99.90
42833;DHT22;64089;51.478;5.692;2023-07-29T09:35:45;21.00;99.90
42833;DHT22;64089;51.478;5.692;2023-07-29T09:38:14;21.10;99.90
42833;DHT22;64089;51.478;5.692;2023-07-29T09:40:41;21.20;99.90
42833;DHT22;64089;51.478;5.692;2023-07-29T09:43:08;21.50;99.90
42833;DHT22;64089;51.478;5.692;2023-07-29T09:45:35;21.80;99.90
42833;DHT22;64089;51.478;5.692;2023-07-29T09:48:02;22.20;99.90
42833;DHT22;64089;51.478;5.692;2023-07-29T09:50:29;22.30;99.90
42833;DHT22;64089;51.478;5.692;2023-07-29T09:52:56;22.60;99.90
42833;DHT22;64089;51.478;5.692;2023-07-29T09:55:24;22.60;99.90
42833;DHT22;64089;51.478;5.692;2023-07-29T09:58:01;22.10;99.90
42833;DHT22;64089;51.478;5.692;2023-07-29T10:00:28;22.10;99.90
42833;DHT22;64089;51.478;5.692;2023-07-29T10:02:55;22.00;99.90
42833;DHT22;64089;51.478;5.692;2023-07-29T10:05:22;22.00;99.90
42833;DHT22;64089;51.478;5.692;2023-07-29T10:07:49;22.10;99.90
42833;DHT22;64089;51.478;5.692;2023-07-29T10:10:16;22.40;99.90
42833;DHT22;64089;51.478;5.692;2023-07-29T10:12:42;22.40;99.90
42833;DHT22;64089;51.478;5.692;2023-07-29T10:15:09;22.50;99.90
42833;DHT22;64089;51.478;5.692;2023-07-29T10:17:36;22.60;99.90
42833;DHT22;64089;51.478;5.692;2023-07-29T10:20:04;22.90;99.90
42833;DHT22;64089;51.478;5.692;2023-07-29T10:22:39;23.20;99.90
42833;DHT22;64089;51.478;5.692;2023-07-29T10:25:09;23.00;99.90
42833;DHT22;64089;51.478;5.692;2023-07-29T10:27:55;22.60;99.90
42833;DHT22;64089;51.478;5.692;2023-07-29T10:30:22;22.90;99.90
42833;DHT22;64089;51.478;5.692;2023-07-29T10:32:50;23.20;99.90
42833;DHT22;64089;51.478;5.692;2023-07-29T10:35:16;23.50;99.90
42833;DHT22;64089;51.478;5.692;2023-07-29T10:37:42;23.90;99.90
42833;DHT22;64089;51.478;5.692;2023-07-29T10:40:09;23.70;99.90
42833;DHT22;64089;51.478;5.692;2023-07-29T10:42:41;23.60;99.90
42833;DHT22;64089;51.478;5.692;2023-07-29T10:45:24;23.80;99.90
42833;DHT22;64089;51.478;5.692;2023-07-29T10:47:50;24.00;99.90
42833;DHT22;64089;51.478;5.692;2023-07-29T10:50:20;23.90;99.90
42833;DHT22;64089;51.478;5.692;2023-07-29T10:52:51;24.10;99.90
42833;DHT22;64089;51.478;5.692;2023-07-29T10:55:32;23.50;99.90
42833;DHT22;64089;51.478;5.692;2023-07-29T10:58:24;23.30;99.90
42833;DHT22;64089;51.478;5.692;2023-07-29T11:00:50;22.90;99.90
42833;DHT22;64089;51.478;5.692;2023-07-29T11:03:16;23.00;99.90
42833;DHT22;64089;51.478;5.692;2023-07-29T11:05:49;23.30;99.90
42833;DHT22;64089;51.478;5.692;2023-07-29T11:08:28;23.40;99.90
42833;DHT22;64089;51.478;5.692;2023-07-29T11:13:26;23.40;99.90
42833;DHT22;64089;51.478;5.692;2023-07-29T11:15:53;23.70;99.90
42833;DHT22;64089;51.478;5.692;2023-07-29T11:18:20;24.00;99.90
42833;DHT22;64089;51.478;5.692;2023-07-29T11:20:46;24.00;99.90
42833;DHT22;64089;51.478;5.692;2023-07-29T11:23:13;23.80;99.90
42833;DHT22;64089;51.478;5.692;2023-07-29T11:25:39;23.60;99.90
42833;DHT22;64089;51.478;5.692;2023-07-29T11:28:05;23.70;99.90
42833;DHT22;64089;51.478;5.692;2023-07-29T11:30:30;23.70;99.90
42833;DHT22;64089;51.478;5.692;2023-07-29T11:32:57;23.50;99.90
42833;DHT22;64089;51.478;5.692;2023-07-29T11:35:23;23.60;99.90
42833;DHT22;64089;51.478;5.692;2023-07-29T11:37:55;23.90;99.90
42833;DHT22;64089;51.478;5.692;2023-07-29T11:40:23;24.20;99.90
42833;DHT22;64089;51.478;5.692;2023-07-29T11:42:50;24.30;99.90
42833;DHT22;64089;51.478;5.692;2023-07-29T11:45:16;24.30;99.90
42833;DHT22;64089;51.478;5.692;2023-07-29T11:47:42;23.60;99.90
42833;DHT22;64089;51.478;5.692;2023-07-29T11:50:09;23.40;99.90
42833;DHT22;64089;51.478;5.692;2023-07-29T11:52:36;23.20;99.90
42833;DHT22;64089;51.478;5.692;2023-07-29T11:55:04;22.00;99.90
42833;DHT22;64089;51.478;5.692;2023-07-29T11:57:30;21.10;99.90
42833;DHT22;64089;51.478;5.692;2023-07-29T11:59:57;20.70;99.90
42833;DHT22;64089;51.478;5.692;2023-07-29T12:02:23;20.50;99.90
42833;DHT22;64089;51.478;5.692;2023-07-29T12:04:50;20.40;99.90
42833;DHT22;64089;51.478;5.692;2023-07-29T12:07:17;20.60;99.90
42833;DHT22;64089;51.478;5.692;2023-07-29T12:09:44;20.80;99.90
42833;DHT22;64089;51.478;5.692;2023-07-29T12:12:10;20.90;99.90
42833;DHT22;64089;51.478;5.692;2023-07-29T12:14:36;21.00;99.90
42833;DHT22;64089;51.478;5.692;2023-07-29T12:17:03;21.20;99.90
42833;DHT22;64089;51.478;5.692;2023-07-29T12:19:37;21.10;99.90
42833;DHT22;64089;51.478;5.692;2023-07-29T12:22:03;21.20;99.90
42833;DHT22;64089;51.478;5.692;2023-07-29T12:24:31;21.20;99.90
42833;DHT22;64089;51.478;5.692;2023-07-29T12:26:57;21.30;99.90
42833;DHT22;64089;51.478;5.692;2023-07-29T12:29:23;21.20;99.90
42833;DHT22;64089;51.478;5.692;2023-07-29T12:31:49;21.00;99.90
42833;DHT22;64089;51.478;5.692;2023-07-29T12:34:22;20.50;99.90
42833;DHT22;64089;51.478;5.692;2023-07-29T12:36:49;20.10;99.90
42833;DHT22;64089;51.478;5.692;2023-07-29T12:41:47;19.90;99.90
42833;DHT22;64089;51.478;5.692;2023-07-29T12:44:13;19.90;99.90
42833;DHT22;64089;51.478;5.692;2023-07-29T12:46:39;19.90;99.90
42833;DHT22;64089;51.478;5.692;2023-07-29T12:49:05;19.70;99.90
42833;DHT22;64089;51.478;5.692;2023-07-29T12:51:31;19.40;99.90
42833;DHT22;64089;51.478;5.692;2023-07-29T12:53:57;19.30;99.90
42833;DHT22;64089;51.478;5.692;2023-07-29T12:56:23;19.30;99.90
42833;DHT22;64089;51.478;5.692;2023-07-29T12:58:48;19.00;99.90
42833;DHT22;64089;51.478;5.692;2023-07-29T13:01:14;18.90;99.90
42833;DHT22;64089;51.478;5.692;2023-07-29T13:03:43;18.80;99.90
42833;DHT22;64089;51.478;5.692;2023-07-29T13:06:09;18.80;99.90
42833;DHT22;64089;51.478;5.692;2023-07-29T13:08:34;18.90;99.90
42833;DHT22;64089;51.478;5.692;2023-07-29T13:11:00;18.80;99.90
42833;DHT22;64089;51.478;5.692;2023-07-29T13:13:26;19.10;99.90
42833;DHT22;64089;51.478;5.692;2023-07-29T13:15:51;19.80;99.90
42833;DHT22;64089;51.478;5.692;2023-07-29T13:18:18;20.20;99.90
42833;DHT22;64089;51.478;5.692;2023-07-29T13:20:44;20.70;99.90
42833;DHT22;64089;51.478;5.692;2023-07-29T13:23:09;20.80;99.90
42833;DHT22;64089;51.478;5.692;2023-07-29T13:25:35;20.90;99.90
42833;DHT22;64089;51.478;5.692;2023-07-29T13:28:00;21.10;99.90
42833;DHT22;64089;51.478;5.692;2023-07-29T13:30:26;21.50;99.90
42833;DHT22;64089;51.478;5.692;2023-07-29T13:32:51;21.80;99.90
42833;DHT22;64089;51.478;5.692;2023-07-29T13:35:17;21.60;99.90
42833;DHT22;64089;51.478;5.692;2023-07-29T13:37:43;21.80;99.90
42833;DHT22;64089;51.478;5.692;2023-07-29T13:40:08;22.00;99.90
42833;DHT22;64089;51.478;5.692;2023-07-29T13:42:34;21.80;99.90
42833;DHT22;64089;51.478;5.692;2023-07-29T13:45:00;21.80;99.90
42833;DHT22;64089;51.478;5.692;2023-07-29T13:47:26;22.20;99.90
42833;DHT22;64089;51.478;5.692;2023-07-29T13:49:51;22.60;99.90
42833;DHT22;64089;51.478;5.692;2023-07-29T13:52:17;22.10;99.90
42833;DHT22;64089;51.478;5.692;2023-07-29T13:54:42;22.30;99.90
42833;DHT22;64089;51.478;5.692;2023-07-29T13:57:08;22.70;99.90
42833;DHT22;64089;51.478;5.692;2023-07-29T13:59:35;23.10;99.90
42833;DHT22;64089;51.478;5.692;2023-07-29T14:02:07;23.40;99.90
42833;DHT22;64089;51.478;5.692;2023-07-29T14:04:33;23.50;99.90
42833;DHT22;64089;51.478;5.692;2023-07-29T14:06:59;23.60;99.90
42833;DHT22;64089;51.478;5.692;2023-07-29T14:09:25;23.80;99.90
42833;DHT22;64089;51.478;5.692;2023-07-29T14:11:51;23.90;99.90
42833;DHT22;64089;51.478;5.692;2023-07-29T14:14:17;24.20;99.90
42833;DHT22;64089;51.478;5.692;2023-07-29T14:16:43;24.10;99.90
42833;DHT22;64089;51.478;5.692;2023-07-29T14:19:08;24.10;99.90
42833;DHT22;64089;51.478;5.692;2023-07-29T14:21:34;24.20;99.90
42833;DHT22;64089;51.478;5.692;2023-07-29T14:24:00;24.50;99.90
42833;DHT22;64089;51.478;5.692;2023-07-29T14:26:25;24.20;99.90
42833;DHT22;64089;51.478;5.692;2023-07-29T14:28:51;23.60;99.90
42833;DHT22;64089;51.478;5.692;2023-07-29T14:31:17;23.90;99.90
42833;DHT22;64089;51.478;5.692;2023-07-29T14:33:43;23.70;99.90
42833;DHT22;64089;51.478;5.692;2023-07-29T14:36:09;23.90;99.90
42833;DHT22;64089;51.478;5.692;2023-07-29T14:38:36;23.50;99.90
42833;DHT22;64089;51.478;5.692;2023-07-29T14:41:02;24.00;99.90
42833;DHT22;64089;51.478;5.692;2023-07-29T14:43:29;24.20;99.90
42833;DHT22;64089;51.478;5.692;2023-07-29T14:45:55;24.60;99.90
42833;DHT22;64089;51.478;5.692;2023-07-29T14:48:21;25.00;99.90
42833;DHT22;64089;51.478;5.692;2023-07-29T14:50:46;25.70;99.90
42833;DHT22;64089;51.478;5.692;2023-07-29T14:53:12;25.90;99.90
42833;DHT22;64089;51.478;5.692;2023-07-29T14:55:38;25.10;99.90
42833;DHT22;64089;51.478;5.692;2023-07-29T14:58:03;24.60;99.90
42833;DHT22;64089;51.478;5.692;2023-07-29T15:00:29;24.50;99.90
42833;DHT22;64089;51.478;5.692;2023-07-29T15:02:55;25.20;99.90
42833;DHT22;64089;51.478;5.692;2023-07-29T15:05:20;25.70;99.90
42833;DHT22;64089;51.478;5.692;2023-07-29T15:07:46;26.10;99.90
42833;DHT22;64089;51.478;5.692;2023-07-29T15:10:14;26.50;99.90
42833;DHT22;64089;51.478;5.692;2023-07-29T15:12:41;26.50;99.90
42833;DHT22;64089;51.478;5.692;2023-07-29T15:15:07;26.20;99.90
42833;DHT22;64089;51.478;5.692;2023-07-29T15:17:33;25.90;99.90
42833;DHT22;64089;51.478;5.692;2023-07-29T15:19:59;25.00;99.90
42833;DHT22;64089;51.478;5.692;2023-07-29T15:22:25;24.50;99.90
42833;DHT22;64089;51.478;5.692;2023-07-29T15:24:50;24.50;99.90
42833;DHT22;64089;51.478;5.692;2023-07-29T15:27:16;25.00;99.90
42833;DHT22;64089;51.478;5.692;2023-07-29T15:29:42;25.30;99.90
42833;DHT22;64089;51.478;5.692;2023-07-29T15:32:07;25.30;99.90
42833;DHT22;64089;51.478;5.692;2023-07-29T15:34:33;25.20;99.90
42833;DHT22;64089;51.478;5.692;2023-07-29T15:36:59;24.90;99.90
42833;DHT22;64089;51.478;5.692;2023-07-29T15:39:25;25.70;99.90
42833;DHT22;64089;51.478;5.692;2023-07-29T15:41:51;26.10;99.90